createdAt,value
2023-01-18T00:00:46.378Z,-2.18
2023-01-18T00:03:13.600Z,-2.21
2023-01-18T00:05:41.657Z,-2.23
2023-01-18T00:08:13.466Z,-2.24
2023-01-18T00:10:40.324Z,-2.26
2023-01-18T00:13:07.184Z,-2.26
2023-01-18T00:15:37.097Z,-2.28
2023-01-18T00:18:04.030Z,-2.31
2023-01-18T00:20:31.387Z,-2.30
2023-01-18T00:23:00.901Z,-2.33
2023-01-18T00:25:29.061Z,-2.34
2023-01-18T00:27:56.119Z,-2.35
2023-01-18T00:30:25.318Z,-2.37
2023-01-18T00:32:57.446Z,-2.38
2023-01-18T00:35:24.482Z,-2.40
2023-01-18T00:37:52.170Z,-2.42
2023-01-18T00:40:20.585Z,-2.43
2023-01-18T00:43:05.954Z,-2.44
2023-01-18T00:45:32.707Z,-2.46
2023-01-18T00:47:59.313Z,-2.47
2023-01-18T00:50:25.928Z,-2.50
2023-01-18T00:52:56.916Z,-2.52
2023-01-18T00:55:23.917Z,-2.54
2023-01-18T00:57:50.812Z,-2.55
2023-01-18T01:00:24.184Z,-2.56
2023-01-18T01:02:51.785Z,-2.57
2023-01-18T01:05:40.721Z,-2.59
2023-01-18T01:08:07.660Z,-2.60
2023-01-18T01:10:35.125Z,-2.60
2023-01-18T01:13:20.770Z,-2.61
2023-01-18T01:16:05.634Z,-2.62
2023-01-18T01:18:51.133Z,-2.63
2023-01-18T01:21:36.318Z,-2.66
2023-01-18T01:24:21.664Z,-2.65
2023-01-18T01:26:48.351Z,-2.66
2023-01-18T01:29:15.997Z,-2.69
2023-01-18T01:31:42.701Z,-2.68
2023-01-18T01:34:09.861Z,-2.70
2023-01-18T01:36:36.415Z,-2.72
2023-01-18T01:39:03.040Z,-2.71
2023-01-18T01:41:32.664Z,-2.74
2023-01-18T01:44:04.448Z,-2.75
2023-01-18T01:46:46.678Z,-2.76
2023-01-18T01:49:21.299Z,-2.76
2023-01-18T01:51:56.320Z,-2.77
2023-01-18T01:54:29.376Z,-2.78
2023-01-18T01:57:01.364Z,-2.72
2023-01-18T01:59:28.059Z,-2.71
2023-01-18T02:01:54.704Z,-2.72
2023-01-18T02:04:21.301Z,-2.73
2023-01-18T02:06:47.832Z,-2.74
2023-01-18T02:09:16.202Z,-2.74
2023-01-18T02:11:43.871Z,-2.76
2023-01-18T02:14:16.469Z,-2.76
2023-01-18T02:17:01.785Z,-2.76
2023-01-18T02:19:50.653Z,-2.75
2023-01-18T02:22:38.994Z,-2.74
2023-01-18T02:25:17.420Z,-2.75
2023-01-18T02:27:54.304Z,-2.73
2023-01-18T02:30:30.601Z,-2.74
2023-01-18T02:33:06.546Z,-2.74
2023-01-18T02:35:32.948Z,-2.75
2023-01-18T02:38:06.024Z,-2.75
2023-01-18T02:40:45.427Z,-2.75
2023-01-18T02:43:35.184Z,-2.77
2023-01-18T02:46:21.392Z,-2.78
2023-01-18T02:48:50.082Z,-2.77
2023-01-18T02:51:16.547Z,-2.79
2023-01-18T02:53:45.499Z,-2.78
2023-01-18T02:56:16.960Z,-2.77
2023-01-18T02:59:05.111Z,-2.77
2023-01-18T03:01:55.122Z,-2.79
2023-01-18T03:04:31.233Z,-2.80
2023-01-18T03:07:03.757Z,-2.82
2023-01-18T03:09:31.209Z,-2.82
2023-01-18T03:12:06.077Z,-2.83
2023-01-18T03:14:54.078Z,-2.84
2023-01-18T03:17:36.226Z,-2.86
2023-01-18T03:20:11.175Z,-2.87
2023-01-18T03:23:04.295Z,-2.87
2023-01-18T03:25:34.808Z,-2.87
2023-01-18T03:28:26.861Z,-2.87
2023-01-18T03:31:17.009Z,-2.87
2023-01-18T03:33:49.837Z,-2.85
2023-01-18T03:36:18.381Z,-2.84
2023-01-18T03:38:48.034Z,-2.84
2023-01-18T03:41:19.927Z,-2.84
2023-01-18T03:43:50.361Z,-2.84
2023-01-18T03:46:19.839Z,-2.83
2023-01-18T03:48:46.416Z,-2.84
2023-01-18T03:51:29.891Z,-2.84
2023-01-18T03:54:15.352Z,-2.85
2023-01-18T03:56:53.079Z,-2.84
2023-01-18T03:59:19.607Z,-2.86
2023-01-18T04:01:48.282Z,-2.86
2023-01-18T04:04:15.217Z,-2.85
2023-01-18T04:06:42.421Z,-2.87
2023-01-18T04:09:08.991Z,-2.86
2023-01-18T04:11:35.481Z,-2.87
2023-01-18T04:14:01.893Z,-2.86
2023-01-18T04:16:28.442Z,-2.85
2023-01-18T04:18:55.060Z,-2.84
2023-01-18T04:21:21.722Z,-2.86
2023-01-18T04:23:48.155Z,-2.86
2023-01-18T04:26:16.661Z,-2.87
2023-01-18T04:28:43.459Z,-2.87
2023-01-18T04:31:10.092Z,-2.87
2023-01-18T04:33:36.915Z,-2.87
2023-01-18T04:36:04.160Z,-2.86
2023-01-18T04:38:30.721Z,-2.85
2023-01-18T04:41:03.205Z,-2.85
2023-01-18T04:43:29.934Z,-2.85
2023-01-18T04:45:56.850Z,-2.85
2023-01-18T04:48:24.373Z,-2.85
2023-01-18T04:50:51.570Z,-2.84
2023-01-18T04:53:18.588Z,-2.86
2023-01-18T04:55:45.479Z,-2.84
2023-01-18T04:58:12.014Z,-2.84
2023-01-18T05:00:39.943Z,-2.85
2023-01-18T05:03:11.289Z,-2.85
2023-01-18T05:05:38.014Z,-2.85
2023-01-18T05:08:04.635Z,-2.84
2023-01-18T05:10:33.534Z,-2.84
2023-01-18T05:13:00.530Z,-2.84
2023-01-18T05:15:27.737Z,-2.83
2023-01-18T05:17:54.289Z,-2.82
2023-01-18T05:20:20.895Z,-2.83
2023-01-18T05:22:47.564Z,-2.83
2023-01-18T05:25:14.189Z,-2.83
2023-01-18T05:27:40.849Z,-2.82
2023-01-18T05:30:09.660Z,-2.83
2023-01-18T05:32:36.398Z,-2.84
2023-01-18T05:35:04.970Z,-2.85
2023-01-18T05:37:31.664Z,-2.85
2023-01-18T05:39:58.194Z,-2.85
2023-01-18T05:42:24.689Z,-2.86
2023-01-18T05:44:51.196Z,-2.87
2023-01-18T05:47:20.532Z,-2.88
2023-01-18T05:49:47.113Z,-2.89
2023-01-18T05:52:13.733Z,-2.89
2023-01-18T05:54:40.273Z,-2.88
2023-01-18T05:57:06.866Z,-2.89
2023-01-18T05:59:33.422Z,-2.89
2023-01-18T06:01:59.955Z,-2.89
2023-01-18T06:04:26.599Z,-2.90
2023-01-18T06:06:53.393Z,-2.91
2023-01-18T06:09:19.876Z,-2.89
2023-01-18T06:11:46.363Z,-2.88
2023-01-18T06:14:13.076Z,-2.88
2023-01-18T06:16:39.608Z,-2.87
2023-01-18T06:19:06.275Z,-2.87
2023-01-18T06:21:32.869Z,-2.86
2023-01-18T06:23:59.472Z,-2.85
2023-01-18T06:26:26.028Z,-2.84
2023-01-18T06:28:53.569Z,-2.83
2023-01-18T06:31:20.222Z,-2.81
2023-01-18T06:33:46.735Z,-2.81
2023-01-18T06:36:13.384Z,-2.81
2023-01-18T06:38:41.339Z,-2.80
2023-01-18T06:41:09.120Z,-2.79
2023-01-18T06:43:35.619Z,-2.77
2023-01-18T06:46:02.956Z,-2.76
2023-01-18T06:48:29.929Z,-2.76
2023-01-18T06:50:57.385Z,-2.75
2023-01-18T06:53:24.584Z,-2.75
2023-01-18T06:55:54.857Z,-2.73
2023-01-18T06:58:21.438Z,-2.73
2023-01-18T07:00:48.122Z,-2.72
2023-01-18T07:03:14.687Z,-2.72
2023-01-18T07:05:41.169Z,-2.71
2023-01-18T07:08:07.698Z,-2.72
2023-01-18T07:10:34.259Z,-2.71
2023-01-18T07:13:01.170Z,-2.72
2023-01-18T07:15:27.730Z,-2.73
2023-01-18T07:17:54.389Z,-2.72
2023-01-18T07:20:20.913Z,-2.72
2023-01-18T07:22:52.585Z,-2.73
2023-01-18T07:25:20.796Z,-2.72
2023-01-18T07:27:48.900Z,-2.70
2023-01-18T07:30:16.302Z,-2.70
2023-01-18T07:32:50.936Z,-2.69
2023-01-18T07:35:20.025Z,-2.68
2023-01-18T07:37:55.316Z,-2.66
2023-01-18T07:40:22.201Z,-2.64
2023-01-18T07:42:49.140Z,-2.63
2023-01-18T07:45:15.836Z,-2.60
2023-01-18T07:47:42.723Z,-2.59
2023-01-18T07:50:10.240Z,-2.57
2023-01-18T07:52:36.708Z,-2.54
2023-01-18T07:55:05.213Z,-2.51
2023-01-18T07:57:33.033Z,-2.49
2023-01-18T07:59:59.598Z,-2.46
2023-01-18T08:02:26.141Z,-2.42
2023-01-18T08:04:52.664Z,-2.38
2023-01-18T08:07:19.924Z,-2.34
2023-01-18T08:09:46.428Z,-2.31
2023-01-18T08:12:17.913Z,-2.27
2023-01-18T08:14:45.971Z,-2.23
2023-01-18T08:17:12.733Z,-2.19
2023-01-18T08:19:39.426Z,-2.14
2023-01-18T08:22:07.774Z,-2.11
2023-01-18T08:24:34.230Z,-2.05
2023-01-18T08:27:00.806Z,-2.01
2023-01-18T08:29:27.246Z,-1.95
2023-01-18T08:31:54.239Z,-1.91
2023-01-18T08:34:21.874Z,-1.85
2023-01-18T08:36:48.360Z,-1.80
2023-01-18T08:39:15.070Z,-1.74
2023-01-18T08:41:41.934Z,-1.67
2023-01-18T08:44:08.429Z,-1.61
2023-01-18T08:46:36.400Z,-1.56
2023-01-18T08:49:05.628Z,-1.50
2023-01-18T08:51:32.591Z,-1.44
2023-01-18T08:53:59.855Z,-1.37
2023-01-18T08:56:26.672Z,-1.31
2023-01-18T08:58:53.418Z,-1.25
2023-01-18T09:01:22.984Z,-1.21
2023-01-18T09:03:50.621Z,-1.17
2023-01-18T09:06:17.412Z,-1.12
2023-01-18T09:08:47.489Z,-1.07
2023-01-18T09:11:15.117Z,-1.00
2023-01-18T09:13:58.572Z,-0.96
2023-01-18T09:16:26.240Z,-0.89
2023-01-18T09:18:55.221Z,-0.84
2023-01-18T09:21:22.350Z,-0.77
2023-01-18T09:23:50.773Z,-0.73
2023-01-18T09:26:18.341Z,-0.67
2023-01-18T09:28:47.746Z,-0.61
2023-01-18T09:31:14.611Z,-0.57
2023-01-18T09:33:48.305Z,-0.52
2023-01-18T09:36:21.441Z,-0.47
2023-01-18T09:38:48.108Z,-0.42
2023-01-18T09:41:42.782Z,-0.38
2023-01-18T09:44:21.550Z,-0.35
2023-01-18T09:46:54.496Z,-0.32
2023-01-18T09:49:32.675Z,-0.29
2023-01-18T09:52:20.036Z,-0.25
2023-01-18T09:55:01.024Z,-0.22
2023-01-18T09:58:05.779Z,-0.18
2023-01-18T10:00:37.123Z,-0.13
2023-01-18T10:03:28.726Z,-0.11
2023-01-18T10:06:08.932Z,-0.08
2023-01-18T10:09:06.979Z,-0.07
2023-01-18T10:11:50.499Z,-0.06
2023-01-18T10:14:29.056Z,-0.06
2023-01-18T10:17:02.494Z,-0.05
2023-01-18T10:19:31.382Z,-0.02
2023-01-18T10:22:20.877Z,0.00
2023-01-18T10:25:13.045Z,0.02
2023-01-18T10:28:12.837Z,0.04
2023-01-18T10:31:06.049Z,0.05
2023-01-18T10:33:40.899Z,0.02
2023-01-18T10:36:13.575Z,0.02
2023-01-18T10:38:41.195Z,0.01
2023-01-18T10:41:19.331Z,0.02
2023-01-18T10:43:46.855Z,0.04
2023-01-18T10:46:16.963Z,0.04
2023-01-18T10:48:47.279Z,0.05
2023-01-18T10:51:32.146Z,0.08
2023-01-18T10:53:58.730Z,0.11
2023-01-18T10:56:28.303Z,0.14
2023-01-18T10:58:58.393Z,0.17
2023-01-18T11:01:32.009Z,0.24
2023-01-18T11:04:05.938Z,0.30
2023-01-18T11:06:48.038Z,0.36
2023-01-18T11:09:59.276Z,0.45
2023-01-18T11:12:38.869Z,0.55
2023-01-18T11:15:27.733Z,0.67
2023-01-18T11:17:57.955Z,0.76
2023-01-18T11:20:39.183Z,0.85
2023-01-18T11:23:14.837Z,0.94
2023-01-18T11:25:53.413Z,1.02
2023-01-18T11:28:34.059Z,1.15
2023-01-18T11:31:10.221Z,1.25
2023-01-18T11:33:47.891Z,1.35
2023-01-18T11:36:14.530Z,1.45
2023-01-18T11:38:41.578Z,1.55
2023-01-18T11:41:15.707Z,1.67
2023-01-18T11:44:06.724Z,1.79
2023-01-18T11:46:42.602Z,1.90
2023-01-18T11:49:53.513Z,2.01
2023-01-18T11:52:46.805Z,2.12
2023-01-18T11:55:36.290Z,2.20
2023-01-18T11:58:05.180Z,2.28
2023-01-18T12:00:46.799Z,2.36
2023-01-18T12:03:28.398Z,2.46
2023-01-18T12:06:03.819Z,2.49
2023-01-18T12:08:47.994Z,2.51
2023-01-18T12:11:24.163Z,2.55
2023-01-18T12:14:03.473Z,2.57
2023-01-18T12:16:53.970Z,2.59
2023-01-18T12:19:42.481Z,2.60
2023-01-18T12:22:38.662Z,2.63
2023-01-18T12:25:21.990Z,2.62
2023-01-18T12:28:09.702Z,2.62
2023-01-18T12:30:44.242Z,2.62
2023-01-18T12:33:43.523Z,2.62
2023-01-18T12:36:18.843Z,2.62
2023-01-18T12:38:56.037Z,2.64
2023-01-18T12:42:01.290Z,2.65
2023-01-18T12:44:55.969Z,2.67
2023-01-18T12:47:36.125Z,2.67
2023-01-18T12:50:12.847Z,2.69
2023-01-18T12:52:47.719Z,2.70
2023-01-18T12:55:20.989Z,2.68
2023-01-18T12:57:50.408Z,2.69
2023-01-18T13:00:23.052Z,2.68
2023-01-18T13:02:52.838Z,2.67
2023-01-18T13:05:35.512Z,2.65
2023-01-18T13:08:17.009Z,2.62
2023-01-18T13:10:44.671Z,2.60
2023-01-18T13:13:17.688Z,2.60
2023-01-18T13:16:05.752Z,2.62
2023-01-18T13:18:42.603Z,2.63
2023-01-18T13:21:26.669Z,2.66
2023-01-18T13:23:59.988Z,2.66
2023-01-18T13:26:34.586Z,2.67
2023-01-18T13:29:10.261Z,2.68
2023-01-18T13:31:40.436Z,2.65
2023-01-18T13:34:24.389Z,2.64
2023-01-18T13:36:51.011Z,2.63
2023-01-18T13:39:19.541Z,2.60
2023-01-18T13:42:04.323Z,2.58
2023-01-18T13:44:40.288Z,2.57
2023-01-18T13:47:39.482Z,2.55
2023-01-18T13:50:40.014Z,2.53
2023-01-18T13:53:18.413Z,2.52
2023-01-18T13:56:00.074Z,2.49
2023-01-18T13:58:32.409Z,2.48
2023-01-18T14:01:03.584Z,2.47
2023-01-18T14:03:38.709Z,2.46
2023-01-18T14:06:09.113Z,2.44
2023-01-18T14:08:39.791Z,2.42
2023-01-18T14:11:10.320Z,2.42
2023-01-18T14:13:45.788Z,2.38
2023-01-18T14:16:22.837Z,2.37
2023-01-18T14:18:53.706Z,2.36
2023-01-18T14:21:54.128Z,2.35
2023-01-18T14:24:40.559Z,2.32
2023-01-18T14:27:14.398Z,2.29
2023-01-18T14:29:49.726Z,2.26
2023-01-18T14:32:23.198Z,2.23
2023-01-18T14:35:25.961Z,2.19
2023-01-18T14:38:16.738Z,2.17
2023-01-18T14:40:45.960Z,2.16
2023-01-18T14:43:24.888Z,2.12
2023-01-18T14:45:56.297Z,2.09
2023-01-18T14:48:24.496Z,2.06
2023-01-18T14:50:53.993Z,2.02
2023-01-18T14:53:30.817Z,1.99
2023-01-18T14:56:06.660Z,1.95
2023-01-18T14:58:40.318Z,1.90
2023-01-18T15:01:09.066Z,1.84
2023-01-18T15:03:36.451Z,1.80
2023-01-18T15:06:44.915Z,1.75
2023-01-18T15:09:12.834Z,1.71
2023-01-18T15:11:42.035Z,1.66
2023-01-18T15:14:15.730Z,1.63
2023-01-18T15:16:42.583Z,1.59
2023-01-18T15:19:16.860Z,1.54
2023-01-18T15:21:43.993Z,1.49
2023-01-18T15:24:16.188Z,1.44
2023-01-18T15:26:52.217Z,1.38
2023-01-18T15:29:23.908Z,1.33
2023-01-18T15:32:03.655Z,1.25
2023-01-18T15:34:33.557Z,1.17
2023-01-18T15:37:01.931Z,1.12
2023-01-18T15:39:28.866Z,1.05
2023-01-18T15:41:56.913Z,1.01
2023-01-18T15:44:35.702Z,0.95
2023-01-18T15:47:13.643Z,0.87
2023-01-18T15:49:44.405Z,0.79
2023-01-18T15:52:10.960Z,0.74
2023-01-18T15:54:37.813Z,0.67
2023-01-18T15:57:18.840Z,0.60
2023-01-18T15:59:47.754Z,0.55
2023-01-18T16:02:20.135Z,0.50
2023-01-18T16:04:46.836Z,0.45
2023-01-18T16:07:35.929Z,0.39
2023-01-18T16:10:27.752Z,0.34
2023-01-18T16:12:56.506Z,0.30
2023-01-18T16:15:28.188Z,0.25
2023-01-18T16:18:02.733Z,0.22
2023-01-18T16:20:32.301Z,0.18
2023-01-18T16:23:06.705Z,0.15
2023-01-18T16:25:33.288Z,0.12
2023-01-18T16:28:02.542Z,0.07
2023-01-18T16:30:34.463Z,0.04
2023-01-18T16:33:09.370Z,0.00
2023-01-18T16:35:39.706Z,-0.02
2023-01-18T16:38:13.507Z,-0.06
2023-01-18T16:40:44.070Z,-0.09
2023-01-18T16:43:27.391Z,-0.10
2023-01-18T16:45:56.534Z,-0.12
2023-01-18T16:48:28.296Z,-0.16
2023-01-18T16:51:01.568Z,-0.19
2023-01-18T16:53:29.239Z,-0.23
2023-01-18T16:55:56.738Z,-0.26
2023-01-18T16:58:24.134Z,-0.27
2023-01-18T17:01:01.515Z,-0.31
2023-01-18T17:03:28.140Z,-0.36
2023-01-18T17:05:55.476Z,-0.39
2023-01-18T17:08:21.980Z,-0.42
2023-01-18T17:10:50.704Z,-0.47
2023-01-18T17:13:17.794Z,-0.50
2023-01-18T17:15:45.625Z,-0.54
2023-01-18T17:18:18.297Z,-0.59
2023-01-18T17:20:44.884Z,-0.62
2023-01-18T17:23:11.519Z,-0.66
2023-01-18T17:25:38.766Z,-0.68
2023-01-18T17:28:05.563Z,-0.70
2023-01-18T17:30:33.032Z,-0.75
2023-01-18T17:33:00.635Z,-0.75
2023-01-18T17:35:31.932Z,-0.76
2023-01-18T17:38:05.712Z,-0.78
2023-01-18T17:40:42.548Z,-0.78
2023-01-18T17:43:28.500Z,-0.77
2023-01-18T17:46:02.543Z,-0.74
2023-01-18T17:48:29.486Z,-0.75
2023-01-18T17:50:56.060Z,-0.76
2023-01-18T17:53:22.843Z,-0.78
2023-01-18T17:55:49.874Z,-0.81
2023-01-18T17:58:16.340Z,-0.85
2023-01-18T18:00:42.902Z,-0.88
2023-01-18T18:03:09.882Z,-0.90
2023-01-18T18:05:36.703Z,-0.91
2023-01-18T18:08:03.184Z,-0.95
2023-01-18T18:10:31.012Z,-0.96
2023-01-18T18:12:57.881Z,-0.98
2023-01-18T18:15:25.029Z,-1.00
2023-01-18T18:17:51.640Z,-1.02
2023-01-18T18:20:18.278Z,-1.05
2023-01-18T18:22:45.010Z,-1.07
2023-01-18T18:25:11.577Z,-1.12
2023-01-18T18:27:45.361Z,-1.15
2023-01-18T18:30:13.016Z,-1.19
2023-01-18T18:32:39.650Z,-1.22
2023-01-18T18:35:23.278Z,-1.26
2023-01-18T18:37:50.953Z,-1.29
2023-01-18T18:40:17.965Z,-1.32
2023-01-18T18:42:49.927Z,-1.33
2023-01-18T18:45:27.121Z,-1.36
2023-01-18T18:47:53.831Z,-1.37
2023-01-18T18:50:20.404Z,-1.36
2023-01-18T18:52:46.896Z,-1.36
2023-01-18T18:55:13.657Z,-1.37
2023-01-18T18:57:40.238Z,-1.36
2023-01-18T19:00:07.816Z,-1.33
2023-01-18T19:02:35.635Z,-1.34
2023-01-18T19:05:02.387Z,-1.32
2023-01-18T19:07:29.255Z,-1.32
2023-01-18T19:09:55.978Z,-1.33
2023-01-18T19:12:22.604Z,-1.34
2023-01-18T19:14:49.165Z,-1.34
2023-01-18T19:17:25.172Z,-1.34
2023-01-18T19:19:55.983Z,-1.35
2023-01-18T19:22:22.490Z,-1.34
2023-01-18T19:24:49.333Z,-1.34
2023-01-18T19:27:16.588Z,-1.33
2023-01-18T19:29:43.205Z,-1.34
2023-01-18T19:32:09.765Z,-1.33
2023-01-18T19:34:38.652Z,-1.34
2023-01-18T19:37:05.661Z,-1.35
2023-01-18T19:39:35.475Z,-1.34
2023-01-18T19:42:02.582Z,-1.33
2023-01-18T19:44:29.289Z,-1.31
2023-01-18T19:46:56.871Z,-1.31
2023-01-18T19:49:26.221Z,-1.29
2023-01-18T19:51:54.302Z,-1.28
2023-01-18T19:54:21.012Z,-1.27
2023-01-18T19:56:47.448Z,-1.24
2023-01-18T19:59:14.993Z,-1.24
2023-01-18T20:01:41.949Z,-1.22
2023-01-18T20:04:08.798Z,-1.21
2023-01-18T20:06:38.271Z,-1.20
2023-01-18T20:09:17.648Z,-1.17
2023-01-18T20:11:45.706Z,-1.16
2023-01-18T20:14:12.479Z,-1.15
2023-01-18T20:16:39.110Z,-1.16
2023-01-18T20:19:05.744Z,-1.15
2023-01-18T20:21:32.195Z,-1.15
2023-01-18T20:23:58.975Z,-1.17
2023-01-18T20:26:35.861Z,-1.17
2023-01-18T20:29:06.813Z,-1.18
2023-01-18T20:31:36.085Z,-1.18
2023-01-18T20:34:03.548Z,-1.20
2023-01-18T20:36:30.523Z,-1.19
2023-01-18T20:38:57.385Z,-1.20
2023-01-18T20:41:24.013Z,-1.21
2023-01-18T20:43:50.586Z,-1.23
2023-01-18T20:46:17.211Z,-1.21
2023-01-18T20:48:43.821Z,-1.19
2023-01-18T20:51:10.509Z,-1.19
2023-01-18T20:53:39.982Z,-1.18
2023-01-18T20:56:27.924Z,-1.18
2023-01-18T20:58:55.159Z,-1.18
2023-01-18T21:01:21.751Z,-1.20
2023-01-18T21:03:55.210Z,-1.25
2023-01-18T21:06:21.711Z,-1.30
2023-01-18T21:08:52.527Z,-1.32
2023-01-18T21:14:49.235Z,-1.39
2023-01-18T21:17:15.727Z,-1.41
2023-01-18T21:19:45.926Z,-1.45
2023-01-18T21:22:13.205Z,-1.49
2023-01-18T21:24:39.845Z,-1.52
2023-01-18T21:27:08.038Z,-1.54
2023-01-18T21:29:34.508Z,-1.55
2023-01-18T21:32:01.454Z,-1.58
2023-01-18T21:34:28.014Z,-1.63
2023-01-18T21:36:54.514Z,-1.66
2023-01-18T21:39:25.193Z,-1.67
2023-01-18T21:42:11.157Z,-1.70
2023-01-18T21:47:33.080Z,-1.74
2023-01-18T21:50:18.899Z,-1.74
2023-01-18T21:53:04.149Z,-1.76
2023-01-18T21:55:30.710Z,-1.76
2023-01-18T21:58:15.564Z,-1.77
2023-01-18T22:00:42.444Z,-1.74
2023-01-18T22:03:09.846Z,-1.74
2023-01-18T22:05:36.434Z,-1.73
2023-01-18T22:08:03.174Z,-1.68
2023-01-18T22:10:29.872Z,-1.68
2023-01-18T22:12:56.415Z,-1.66
2023-01-18T22:15:23.173Z,-1.62
2023-01-18T22:17:49.784Z,-1.60
2023-01-18T22:20:16.668Z,-1.57
2023-01-18T22:22:43.200Z,-1.57
2023-01-18T22:25:09.981Z,-1.55
2023-01-18T22:27:36.491Z,-1.55
2023-01-18T22:30:03.953Z,-1.53
2023-01-18T22:32:30.483Z,-1.53
2023-01-18T22:34:57.275Z,-1.52
2023-01-18T22:37:25.754Z,-1.50
2023-01-18T22:39:52.353Z,-1.50
2023-01-18T22:42:18.982Z,-1.52
2023-01-18T22:44:46.544Z,-1.51
2023-01-18T22:47:13.078Z,-1.50
2023-01-18T22:49:39.645Z,-1.49
2023-01-18T22:52:06.200Z,-1.49
2023-01-18T22:54:32.716Z,-1.48
2023-01-18T22:56:59.247Z,-1.49
2023-01-18T22:59:25.831Z,-1.50
2023-01-18T23:01:52.411Z,-1.51
2023-01-18T23:04:18.937Z,-1.53
2023-01-18T23:06:46.751Z,-1.51
2023-01-18T23:09:17.656Z,-1.50
2023-01-18T23:11:45.458Z,-1.49
2023-01-18T23:14:30.471Z,-1.46
2023-01-18T23:17:15.806Z,-1.45
2023-01-18T23:19:42.341Z,-1.43
2023-01-18T23:22:08.925Z,-1.43
2023-01-18T23:24:36.756Z,-1.42
2023-01-18T23:27:06.257Z,-1.39
2023-01-18T23:29:33.591Z,-1.39
2023-01-18T23:32:00.181Z,-1.40
2023-01-18T23:34:26.755Z,-1.43
2023-01-18T23:36:53.738Z,-1.44
2023-01-18T23:39:39.361Z,-1.47
2023-01-18T23:42:24.450Z,-1.48
2023-01-18T23:45:09.759Z,-1.47
2023-01-18T23:47:55.231Z,-1.46
2023-01-18T23:50:40.723Z,-1.46
2023-01-18T23:53:30.711Z,-1.46
2023-01-18T23:55:57.874Z,-1.49
2023-01-18T23:58:24.910Z,-1.46
